sensor_id;sensor_type;location;lat;lon;timestamp;P1;durP1;ratioP1;P2;durP2;ratioP2
37995;SDS011;23808;50.634;6.948;2022-07-29T00:01:21;5.77;;;2.57;;
37995;SDS011;23808;50.634;6.948;2022-07-29T00:05:21;5.43;;;2.30;;
37995;SDS011;23808;50.634;6.948;2022-07-29T00:09:22;2.47;;;2.27;;
37995;SDS011;23808;50.634;6.948;2022-07-29T00:13:23;5.60;;;2.40;;
37995;SDS011;23808;50.634;6.948;2022-07-29T00:17:23;6.50;;;2.50;;
37995;SDS011;23808;50.634;6.948;2022-07-29T00:21:24;4.30;;;2.93;;
37995;SDS011;23808;50.634;6.948;2022-07-29T00:25:25;5.27;;;1.90;;
37995;SDS011;23808;50.634;6.948;2022-07-29T00:29:25;2.97;;;2.53;;
37995;SDS011;23808;50.634;6.948;2022-07-29T00:33:26;7.00;;;2.47;;
37995;SDS011;23808;50.634;6.948;2022-07-29T00:37:26;3.20;;;2.57;;
37995;SDS011;23808;50.634;6.948;2022-07-29T00:41:27;5.30;;;3.30;;
37995;SDS011;23808;50.634;6.948;2022-07-29T00:45:28;5.93;;;3.17;;
37995;SDS011;23808;50.634;6.948;2022-07-29T00:49:29;9.83;;;3.00;;
37995;SDS011;23808;50.634;6.948;2022-07-29T00:53:30;2.70;;;2.37;;
37995;SDS011;23808;50.634;6.948;2022-07-29T00:57:31;4.20;;;3.00;;
37995;SDS011;23808;50.634;6.948;2022-07-29T01:01:33;3.00;;;2.50;;
37995;SDS011;23808;50.634;6.948;2022-07-29T01:05:34;5.20;;;2.30;;
37995;SDS011;23808;50.634;6.948;2022-07-29T01:09:35;3.17;;;2.87;;
37995;SDS011;23808;50.634;6.948;2022-07-29T01:13:38;5.40;;;3.33;;
37995;SDS011;23808;50.634;6.948;2022-07-29T01:26:49;3.27;;;2.60;;
37995;SDS011;23808;50.634;6.948;2022-07-29T01:31:26;6.33;;;2.93;;
37995;SDS011;23808;50.634;6.948;2022-07-29T01:35:48;4.00;;;2.60;;
37995;SDS011;23808;50.634;6.948;2022-07-29T01:39:49;2.57;;;2.37;;
37995;SDS011;23808;50.634;6.948;2022-07-29T01:43:55;4.70;;;2.77;;
37995;SDS011;23808;50.634;6.948;2022-07-29T01:48:00;2.63;;;2.43;;
37995;SDS011;23808;50.634;6.948;2022-07-29T01:52:10;4.13;;;2.90;;
37995;SDS011;23808;50.634;6.948;2022-07-29T01:56:16;4.23;;;3.20;;
37995;SDS011;23808;50.634;6.948;2022-07-29T02:00:19;6.87;;;2.57;;
37995;SDS011;23808;50.634;6.948;2022-07-29T02:04:21;5.03;;;3.10;;
37995;SDS011;23808;50.634;6.948;2022-07-29T02:08:24;3.93;;;2.90;;
37995;SDS011;23808;50.634;6.948;2022-07-29T02:12:26;6.53;;;3.77;;
37995;SDS011;23808;50.634;6.948;2022-07-29T02:16:29;7.63;;;3.17;;
37995;SDS011;23808;50.634;6.948;2022-07-29T02:20:32;5.20;;;2.50;;
37995;SDS011;23808;50.634;6.948;2022-07-29T02:24:34;11.13;;;3.80;;
37995;SDS011;23808;50.634;6.948;2022-07-29T02:28:37;4.67;;;3.10;;
37995;SDS011;23808;50.634;6.948;2022-07-29T02:32:40;3.17;;;2.97;;
37995;SDS011;23808;50.634;6.948;2022-07-29T02:36:43;4.40;;;2.80;;
37995;SDS011;23808;50.634;6.948;2022-07-29T02:40:45;5.47;;;3.47;;
37995;SDS011;23808;50.634;6.948;2022-07-29T02:44:46;8.20;;;4.00;;
37995;SDS011;23808;50.634;6.948;2022-07-29T02:49:32;5.93;;;3.53;;
37995;SDS011;23808;50.634;6.948;2022-07-29T02:53:43;6.37;;;3.40;;
37995;SDS011;23808;50.634;6.948;2022-07-29T02:57:58;6.00;;;3.90;;
37995;SDS011;23808;50.634;6.948;2022-07-29T03:02:18;5.10;;;3.43;;
37995;SDS011;23808;50.634;6.948;2022-07-29T03:06:22;3.77;;;2.90;;
37995;SDS011;23808;50.634;6.948;2022-07-29T03:10:25;8.90;;;4.27;;
37995;SDS011;23808;50.634;6.948;2022-07-29T03:14:27;4.97;;;3.07;;
37995;SDS011;23808;50.634;6.948;2022-07-29T03:18:28;3.50;;;3.30;;
37995;SDS011;23808;50.634;6.948;2022-07-29T03:22:30;3.33;;;2.80;;
37995;SDS011;23808;50.634;6.948;2022-07-29T03:26:31;7.83;;;3.37;;
37995;SDS011;23808;50.634;6.948;2022-07-29T03:30:32;4.10;;;3.13;;
37995;SDS011;23808;50.634;6.948;2022-07-29T03:34:32;4.40;;;3.33;;
37995;SDS011;23808;50.634;6.948;2022-07-29T03:38:33;3.53;;;3.20;;
37995;SDS011;23808;50.634;6.948;2022-07-29T03:42:36;6.10;;;2.93;;
37995;SDS011;23808;50.634;6.948;2022-07-29T03:46:39;3.30;;;3.10;;
37995;SDS011;23808;50.634;6.948;2022-07-29T03:50:43;4.53;;;3.10;;
37995;SDS011;23808;50.634;6.948;2022-07-29T03:54:44;3.97;;;3.13;;
37995;SDS011;23808;50.634;6.948;2022-07-29T03:58:45;6.50;;;3.40;;
37995;SDS011;23808;50.634;6.948;2022-07-29T04:02:46;4.67;;;3.40;;
37995;SDS011;23808;50.634;6.948;2022-07-29T04:06:48;8.37;;;4.10;;
37995;SDS011;23808;50.634;6.948;2022-07-29T04:10:48;3.50;;;2.83;;
37995;SDS011;23808;50.634;6.948;2022-07-29T04:14:49;4.60;;;3.40;;
37995;SDS011;23808;50.634;6.948;2022-07-29T04:18:50;4.63;;;3.20;;
37995;SDS011;23808;50.634;6.948;2022-07-29T04:22:51;5.53;;;3.63;;
37995;SDS011;23808;50.634;6.948;2022-07-29T04:26:51;9.50;;;4.50;;
37995;SDS011;23808;50.634;6.948;2022-07-29T04:30:52;11.20;;;3.20;;
37995;SDS011;23808;50.634;6.948;2022-07-29T04:34:53;6.83;;;3.33;;
37995;SDS011;23808;50.634;6.948;2022-07-29T04:38:53;3.37;;;3.07;;
37995;SDS011;23808;50.634;6.948;2022-07-29T04:42:54;16.13;;;3.30;;
37995;SDS011;23808;50.634;6.948;2022-07-29T04:46:55;5.40;;;4.60;;
37995;SDS011;23808;50.634;6.948;2022-07-29T04:50:57;10.10;;;3.67;;
37995;SDS011;23808;50.634;6.948;2022-07-29T04:54:57;3.17;;;2.97;;
37995;SDS011;23808;50.634;6.948;2022-07-29T04:58:58;2.87;;;2.63;;
37995;SDS011;23808;50.634;6.948;2022-07-29T05:02:59;9.80;;;3.03;;
37995;SDS011;23808;50.634;6.948;2022-07-29T05:06:59;7.73;;;3.60;;
37995;SDS011;23808;50.634;6.948;2022-07-29T05:11:00;14.60;;;3.73;;
37995;SDS011;23808;50.634;6.948;2022-07-29T05:15:01;5.30;;;3.30;;
37995;SDS011;23808;50.634;6.948;2022-07-29T05:19:01;7.50;;;4.23;;
37995;SDS011;23808;50.634;6.948;2022-07-29T05:23:02;8.73;;;2.70;;
37995;SDS011;23808;50.634;6.948;2022-07-29T05:27:03;4.10;;;3.27;;
37995;SDS011;23808;50.634;6.948;2022-07-29T05:31:04;8.33;;;3.40;;
37995;SDS011;23808;50.634;6.948;2022-07-29T05:35:05;7.30;;;4.00;;
37995;SDS011;23808;50.634;6.948;2022-07-29T05:39:06;8.90;;;3.00;;
37995;SDS011;23808;50.634;6.948;2022-07-29T05:43:12;6.90;;;2.90;;
37995;SDS011;23808;50.634;6.948;2022-07-29T05:47:13;7.63;;;3.77;;
37995;SDS011;23808;50.634;6.948;2022-07-29T05:51:14;4.70;;;2.97;;
37995;SDS011;23808;50.634;6.948;2022-07-29T05:55:15;7.13;;;2.87;;
37995;SDS011;23808;50.634;6.948;2022-07-29T05:59:16;5.07;;;2.60;;
37995;SDS011;23808;50.634;6.948;2022-07-29T06:03:16;4.43;;;3.60;;
37995;SDS011;23808;50.634;6.948;2022-07-29T06:07:17;5.90;;;3.80;;
37995;SDS011;23808;50.634;6.948;2022-07-29T06:11:17;5.07;;;3.03;;
37995;SDS011;23808;50.634;6.948;2022-07-29T06:15:18;11.13;;;3.67;;
37995;SDS011;23808;50.634;6.948;2022-07-29T06:19:18;8.70;;;2.70;;
37995;SDS011;23808;50.634;6.948;2022-07-29T06:23:19;3.27;;;2.97;;
37995;SDS011;23808;50.634;6.948;2022-07-29T06:27:20;3.87;;;2.87;;
37995;SDS011;23808;50.634;6.948;2022-07-29T06:31:21;5.33;;;2.57;;
37995;SDS011;23808;50.634;6.948;2022-07-29T06:35:22;4.83;;;3.50;;
37995;SDS011;23808;50.634;6.948;2022-07-29T06:39:22;4.83;;;2.70;;
37995;SDS011;23808;50.634;6.948;2022-07-29T06:43:23;10.73;;;3.23;;
37995;SDS011;23808;50.634;6.948;2022-07-29T06:47:23;8.93;;;3.50;;
37995;SDS011;23808;50.634;6.948;2022-07-29T06:51:24;4.13;;;3.53;;
37995;SDS011;23808;50.634;6.948;2022-07-29T06:55:25;6.37;;;3.40;;
37995;SDS011;23808;50.634;6.948;2022-07-29T06:59:25;7.00;;;3.37;;
37995;SDS011;23808;50.634;6.948;2022-07-29T07:03:26;13.10;;;4.53;;
37995;SDS011;23808;50.634;6.948;2022-07-29T07:07:27;4.77;;;3.13;;
37995;SDS011;23808;50.634;6.948;2022-07-29T07:11:27;4.87;;;3.40;;
37995;SDS011;23808;50.634;6.948;2022-07-29T07:15:28;7.20;;;3.13;;
37995;SDS011;23808;50.634;6.948;2022-07-29T07:19:29;6.60;;;3.97;;
37995;SDS011;23808;50.634;6.948;2022-07-29T07:23:30;5.63;;;4.17;;
37995;SDS011;23808;50.634;6.948;2022-07-29T07:27:30;3.50;;;3.03;;
37995;SDS011;23808;50.634;6.948;2022-07-29T07:31:31;4.83;;;4.03;;
37995;SDS011;23808;50.634;6.948;2022-07-29T07:35:32;7.33;;;3.13;;
37995;SDS011;23808;50.634;6.948;2022-07-29T07:39:32;4.33;;;3.80;;
37995;SDS011;23808;50.634;6.948;2022-07-29T07:43:33;7.63;;;4.53;;
37995;SDS011;23808;50.634;6.948;2022-07-29T07:47:33;9.60;;;4.47;;
37995;SDS011;23808;50.634;6.948;2022-07-29T07:51:35;5.73;;;3.40;;
37995;SDS011;23808;50.634;6.948;2022-07-29T07:55:42;5.77;;;3.33;;
37995;SDS011;23808;50.634;6.948;2022-07-29T07:59:43;6.10;;;4.00;;
37995;SDS011;23808;50.634;6.948;2022-07-29T08:03:43;10.93;;;4.47;;
37995;SDS011;23808;50.634;6.948;2022-07-29T08:07:45;9.60;;;4.00;;
37995;SDS011;23808;50.634;6.948;2022-07-29T08:11:46;7.70;;;3.90;;
37995;SDS011;23808;50.634;6.948;2022-07-29T08:15:47;7.50;;;3.40;;
37995;SDS011;23808;50.634;6.948;2022-07-29T08:19:57;5.27;;;4.10;;
37995;SDS011;23808;50.634;6.948;2022-07-29T08:23:57;7.47;;;3.90;;
37995;SDS011;23808;50.634;6.948;2022-07-29T08:28:17;9.47;;;4.37;;
37995;SDS011;23808;50.634;6.948;2022-07-29T08:32:17;7.83;;;3.00;;
37995;SDS011;23808;50.634;6.948;2022-07-29T08:36:18;14.63;;;4.00;;
37995;SDS011;23808;50.634;6.948;2022-07-29T08:40:20;7.30;;;3.90;;
37995;SDS011;23808;50.634;6.948;2022-07-29T08:44:23;7.33;;;3.80;;
37995;SDS011;23808;50.634;6.948;2022-07-29T08:48:23;9.23;;;4.10;;
37995;SDS011;23808;50.634;6.948;2022-07-29T08:52:27;7.30;;;3.87;;
37995;SDS011;23808;50.634;6.948;2022-07-29T08:56:29;8.23;;;4.20;;
37995;SDS011;23808;50.634;6.948;2022-07-29T09:00:30;8.10;;;3.30;;
37995;SDS011;23808;50.634;6.948;2022-07-29T09:04:31;10.33;;;3.33;;
37995;SDS011;23808;50.634;6.948;2022-07-29T09:08:35;10.07;;;4.10;;
37995;SDS011;23808;50.634;6.948;2022-07-29T09:12:36;5.10;;;3.80;;
37995;SDS011;23808;50.634;6.948;2022-07-29T09:16:43;8.80;;;4.47;;
37995;SDS011;23808;50.634;6.948;2022-07-29T09:20:52;7.10;;;3.27;;
37995;SDS011;23808;50.634;6.948;2022-07-29T09:25:11;7.20;;;3.40;;
37995;SDS011;23808;50.634;6.948;2022-07-29T09:33:14;4.70;;;3.17;;
37995;SDS011;23808;50.634;6.948;2022-07-29T09:37:28;6.40;;;3.67;;
37995;SDS011;23808;50.634;6.948;2022-07-29T09:41:29;3.50;;;2.90;;
37995;SDS011;23808;50.634;6.948;2022-07-29T09:45:43;11.43;;;3.70;;
37995;SDS011;23808;50.634;6.948;2022-07-29T09:53:57;7.53;;;3.50;;
37995;SDS011;23808;50.634;6.948;2022-07-29T09:58:19;12.50;;;3.40;;
37995;SDS011;23808;50.634;6.948;2022-07-29T10:02:21;5.37;;;3.20;;
37995;SDS011;23808;50.634;6.948;2022-07-29T10:06:22;11.40;;;3.83;;
37995;SDS011;23808;50.634;6.948;2022-07-29T10:10:30;4.20;;;3.53;;
37995;SDS011;23808;50.634;6.948;2022-07-29T10:14:34;4.50;;;2.63;;
37995;SDS011;23808;50.634;6.948;2022-07-29T10:18:36;4.57;;;3.17;;
37995;SDS011;23808;50.634;6.948;2022-07-29T10:22:39;3.60;;;2.97;;
37995;SDS011;23808;50.634;6.948;2022-07-29T10:26:40;8.13;;;3.30;;
37995;SDS011;23808;50.634;6.948;2022-07-29T10:30:41;5.43;;;2.80;;
37995;SDS011;23808;50.634;6.948;2022-07-29T10:43:22;3.20;;;2.53;;
37995;SDS011;23808;50.634;6.948;2022-07-29T10:47:26;3.43;;;2.00;;
37995;SDS011;23808;50.634;6.948;2022-07-29T10:51:33;4.40;;;2.93;;
37995;SDS011;23808;50.634;6.948;2022-07-29T10:55:51;5.43;;;2.60;;
37995;SDS011;23808;50.634;6.948;2022-07-29T11:04:04;4.17;;;2.90;;
37995;SDS011;23808;50.634;6.948;2022-07-29T11:20:58;2.80;;;2.40;;
37995;SDS011;23808;50.634;6.948;2022-07-29T11:25:12;4.03;;;2.50;;
37995;SDS011;23808;50.634;6.948;2022-07-29T11:29:21;5.07;;;2.47;;
37995;SDS011;23808;50.634;6.948;2022-07-29T11:33:32;3.53;;;2.40;;
37995;SDS011;23808;50.634;6.948;2022-07-29T11:37:33;2.90;;;2.57;;
37995;SDS011;23808;50.634;6.948;2022-07-29T11:41:34;7.97;;;4.90;;
37995;SDS011;23808;50.634;6.948;2022-07-29T11:45:46;4.67;;;2.80;;
37995;SDS011;23808;50.634;6.948;2022-07-29T11:49:46;5.33;;;2.70;;
37995;SDS011;23808;50.634;6.948;2022-07-29T11:53:48;3.87;;;2.70;;
37995;SDS011;23808;50.634;6.948;2022-07-29T11:57:51;4.93;;;1.90;;
37995;SDS011;23808;50.634;6.948;2022-07-29T12:01:58;3.43;;;2.00;;
37995;SDS011;23808;50.634;6.948;2022-07-29T12:05:59;4.33;;;2.10;;
37995;SDS011;23808;50.634;6.948;2022-07-29T12:10:00;2.40;;;2.10;;
37995;SDS011;23808;50.634;6.948;2022-07-29T12:14:02;5.00;;;1.90;;
37995;SDS011;23808;50.634;6.948;2022-07-29T12:18:09;7.83;;;2.63;;
37995;SDS011;23808;50.634;6.948;2022-07-29T12:22:16;8.00;;;2.60;;
37995;SDS011;23808;50.634;6.948;2022-07-29T12:26:27;5.07;;;2.27;;
37995;SDS011;23808;50.634;6.948;2022-07-29T12:30:35;3.50;;;2.70;;
37995;SDS011;23808;50.634;6.948;2022-07-29T12:34:39;2.23;;;2.03;;
37995;SDS011;23808;50.634;6.948;2022-07-29T12:38:40;5.03;;;1.97;;
37995;SDS011;23808;50.634;6.948;2022-07-29T12:42:40;9.83;;;2.73;;
37995;SDS011;23808;50.634;6.948;2022-07-29T12:46:41;3.53;;;2.20;;
37995;SDS011;23808;50.634;6.948;2022-07-29T12:50:53;2.37;;;2.20;;
37995;SDS011;23808;50.634;6.948;2022-07-29T12:54:57;2.20;;;2.00;;
37995;SDS011;23808;50.634;6.948;2022-07-29T12:58:58;2.90;;;2.50;;
37995;SDS011;23808;50.634;6.948;2022-07-29T13:02:59;3.13;;;2.57;;
37995;SDS011;23808;50.634;6.948;2022-07-29T13:07:04;3.67;;;2.53;;
37995;SDS011;23808;50.634;6.948;2022-07-29T13:11:07;3.37;;;2.40;;
37995;SDS011;23808;50.634;6.948;2022-07-29T13:15:14;6.80;;;2.80;;
37995;SDS011;23808;50.634;6.948;2022-07-29T13:19:16;8.37;;;3.17;;
37995;SDS011;23808;50.634;6.948;2022-07-29T13:23:16;3.00;;;2.23;;
37995;SDS011;23808;50.634;6.948;2022-07-29T13:27:18;3.40;;;2.47;;
37995;SDS011;23808;50.634;6.948;2022-07-29T13:31:20;8.83;;;2.87;;
37995;SDS011;23808;50.634;6.948;2022-07-29T13:35:21;6.20;;;2.73;;
37995;SDS011;23808;50.634;6.948;2022-07-29T13:39:22;4.60;;;3.60;;
37995;SDS011;23808;50.634;6.948;2022-07-29T13:43:23;8.20;;;2.43;;
37995;SDS011;23808;50.634;6.948;2022-07-29T13:47:23;4.77;;;2.80;;
37995;SDS011;23808;50.634;6.948;2022-07-29T13:51:24;4.00;;;2.27;;
37995;SDS011;23808;50.634;6.948;2022-07-29T13:55:25;4.70;;;2.30;;
37995;SDS011;23808;50.634;6.948;2022-07-29T13:59:25;3.17;;;2.50;;
37995;SDS011;23808;50.634;6.948;2022-07-29T14:03:26;6.10;;;2.83;;
37995;SDS011;23808;50.634;6.948;2022-07-29T14:07:26;4.27;;;2.17;;
37995;SDS011;23808;50.634;6.948;2022-07-29T14:11:27;3.43;;;1.80;;
37995;SDS011;23808;50.634;6.948;2022-07-29T14:15:28;4.10;;;1.73;;
37995;SDS011;23808;50.634;6.948;2022-07-29T14:19:28;2.07;;;1.97;;
37995;SDS011;23808;50.634;6.948;2022-07-29T14:23:29;5.17;;;2.27;;
37995;SDS011;23808;50.634;6.948;2022-07-29T14:27:29;2.63;;;2.43;;
37995;SDS011;23808;50.634;6.948;2022-07-29T14:31:30;4.47;;;2.97;;
37995;SDS011;23808;50.634;6.948;2022-07-29T14:35:30;1.83;;;1.73;;
37995;SDS011;23808;50.634;6.948;2022-07-29T14:39:31;2.40;;;2.17;;
37995;SDS011;23808;50.634;6.948;2022-07-29T14:43:32;3.07;;;2.80;;
37995;SDS011;23808;50.634;6.948;2022-07-29T14:47:34;9.13;;;3.10;;
37995;SDS011;23808;50.634;6.948;2022-07-29T14:51:35;2.33;;;2.13;;
37995;SDS011;23808;50.634;6.948;2022-07-29T14:55:36;3.53;;;2.47;;
37995;SDS011;23808;50.634;6.948;2022-07-29T14:59:36;3.10;;;2.77;;
37995;SDS011;23808;50.634;6.948;2022-07-29T15:03:37;3.00;;;2.57;;
37995;SDS011;23808;50.634;6.948;2022-07-29T15:07:38;6.93;;;4.40;;
37995;SDS011;23808;50.634;6.948;2022-07-29T15:11:38;10.57;;;4.50;;
37995;SDS011;23808;50.634;6.948;2022-07-29T15:15:39;8.23;;;3.60;;
37995;SDS011;23808;50.634;6.948;2022-07-29T15:19:41;4.50;;;3.67;;
37995;SDS011;23808;50.634;6.948;2022-07-29T15:23:41;4.40;;;3.60;;
37995;SDS011;23808;50.634;6.948;2022-07-29T15:27:42;5.90;;;3.40;;
37995;SDS011;23808;50.634;6.948;2022-07-29T15:31:42;4.10;;;3.30;;
37995;SDS011;23808;50.634;6.948;2022-07-29T15:35:43;3.50;;;3.20;;
37995;SDS011;23808;50.634;6.948;2022-07-29T15:39:44;8.67;;;3.17;;
37995;SDS011;23808;50.634;6.948;2022-07-29T15:43:44;8.07;;;3.00;;
37995;SDS011;23808;50.634;6.948;2022-07-29T15:47:47;5.17;;;2.80;;
37995;SDS011;23808;50.634;6.948;2022-07-29T15:51:48;5.60;;;2.50;;
37995;SDS011;23808;50.634;6.948;2022-07-29T15:55:48;13.57;;;2.70;;
37995;SDS011;23808;50.634;6.948;2022-07-29T15:59:49;8.20;;;2.57;;
37995;SDS011;23808;50.634;6.948;2022-07-29T16:03:50;2.73;;;2.50;;
37995;SDS011;23808;50.634;6.948;2022-07-29T16:07:51;4.27;;;2.63;;
37995;SDS011;23808;50.634;6.948;2022-07-29T16:11:52;5.57;;;2.43;;
37995;SDS011;23808;50.634;6.948;2022-07-29T16:15:53;2.53;;;2.30;;
37995;SDS011;23808;50.634;6.948;2022-07-29T16:19:53;2.50;;;2.30;;
37995;SDS011;23808;50.634;6.948;2022-07-29T16:23:54;4.33;;;2.80;;
37995;SDS011;23808;50.634;6.948;2022-07-29T16:27:54;3.27;;;2.10;;
37995;SDS011;23808;50.634;6.948;2022-07-29T16:31:55;2.33;;;2.10;;
37995;SDS011;23808;50.634;6.948;2022-07-29T16:35:56;2.83;;;2.03;;
37995;SDS011;23808;50.634;6.948;2022-07-29T16:39:56;3.67;;;2.70;;
37995;SDS011;23808;50.634;6.948;2022-07-29T16:43:57;4.30;;;2.60;;
37995;SDS011;23808;50.634;6.948;2022-07-29T16:47:58;3.13;;;2.67;;
37995;SDS011;23808;50.634;6.948;2022-07-29T16:51:58;3.60;;;2.27;;
37995;SDS011;23808;50.634;6.948;2022-07-29T16:55:59;2.27;;;2.07;;
37995;SDS011;23808;50.634;6.948;2022-07-29T17:00:00;4.53;;;2.13;;
37995;SDS011;23808;50.634;6.948;2022-07-29T17:04:01;3.40;;;1.70;;
37995;SDS011;23808;50.634;6.948;2022-07-29T17:08:06;9.93;;;2.30;;
37995;SDS011;23808;50.634;6.948;2022-07-29T17:12:06;1.90;;;1.80;;
37995;SDS011;23808;50.634;6.948;2022-07-29T17:16:07;2.10;;;1.90;;
37995;SDS011;23808;50.634;6.948;2022-07-29T17:20:08;2.50;;;2.07;;
37995;SDS011;23808;50.634;6.948;2022-07-29T17:24:10;2.37;;;2.10;;
37995;SDS011;23808;50.634;6.948;2022-07-29T17:28:10;2.10;;;1.70;;
37995;SDS011;23808;50.634;6.948;2022-07-29T17:32:11;2.30;;;2.10;;
37995;SDS011;23808;50.634;6.948;2022-07-29T17:36:12;4.77;;;2.10;;
37995;SDS011;23808;50.634;6.948;2022-07-29T17:40:28;3.03;;;2.60;;
37995;SDS011;23808;50.634;6.948;2022-07-29T17:44:29;6.33;;;2.20;;
37995;SDS011;23808;50.634;6.948;2022-07-29T17:48:30;3.10;;;2.80;;
37995;SDS011;23808;50.634;6.948;2022-07-29T17:52:31;2.33;;;2.13;;
37995;SDS011;23808;50.634;6.948;2022-07-29T17:56:31;2.30;;;2.10;;
37995;SDS011;23808;50.634;6.948;2022-07-29T18:00:32;7.37;;;2.40;;
37995;SDS011;23808;50.634;6.948;2022-07-29T18:04:34;2.60;;;2.23;;
37995;SDS011;23808;50.634;6.948;2022-07-29T18:08:34;5.60;;;2.50;;
37995;SDS011;23808;50.634;6.948;2022-07-29T18:12:36;3.20;;;3.00;;
37995;SDS011;23808;50.634;6.948;2022-07-29T18:16:36;2.73;;;2.53;;
37995;SDS011;23808;50.634;6.948;2022-07-29T18:20:37;3.30;;;2.63;;
37995;SDS011;23808;50.634;6.948;2022-07-29T18:24:38;4.83;;;2.93;;
37995;SDS011;23808;50.634;6.948;2022-07-29T18:28:38;5.57;;;3.17;;
37995;SDS011;23808;50.634;6.948;2022-07-29T18:32:39;3.33;;;3.07;;
37995;SDS011;23808;50.634;6.948;2022-07-29T18:36:40;10.37;;;3.53;;
37995;SDS011;23808;50.634;6.948;2022-07-29T18:40:41;3.70;;;2.63;;
37995;SDS011;23808;50.634;6.948;2022-07-29T18:44:42;3.10;;;2.90;;
37995;SDS011;23808;50.634;6.948;2022-07-29T18:48:42;5.77;;;3.60;;
37995;SDS011;23808;50.634;6.948;2022-07-29T18:52:43;6.87;;;3.47;;
37995;SDS011;23808;50.634;6.948;2022-07-29T18:56:45;3.70;;;3.40;;
